Catàleg de serveis del Meteocat

Dades de l'estació automàtica el Perelló

?
?
Resum diari 22:30 TU
Dades diàries de l'estació meteorològica
Temperatura mitjana 11.6 °C
Temperatura màxima 15.7 °C 13:01 TU
Temperatura mínima 9.3 °C 21:16 TU
Humitat relativa mitjana 84%
Precipitació acumulada 2.4 mm
Ratxa màxima del vent (10 m) 51.1 km/h - 274º 16:36 TU
Pressió atmosfèrica mitjana 1001.2 hPa
Irradiació solar global 5.8 MJ/m2

El tram horari està expressat en Temps Universal (TU). Cal sumar una hora en horari d'hivern i dues en horari d'estiu per passar a l'hora oficial.

el Perelló

Metadades estació meteorol´gica
Municipi El Perelló
Comarca Baix Ebre
Altitud 179 m
Data alta 05.02.1998
Estat actual Operativa
Dades de període
Període
TU
TM
°C
TX
°C
TN
°C
HRM
%
PPT
mm
VVM (10 m)
km/h
DVM (10 m)
graus
VVX (10 m)
km/h
PM
hPa
RS
W/m2
00:00 - 00:30 11.3 11.5 11.1 81 0.0 12.2 234 19.1 1000.9 0
00:30 - 01:00 11.2 11.5 11.1 81 0.0 12.6 229 18.4 1000.9 0
01:00 - 01:30 11.2 11.3 11.0 79 0.0 15.1 226 23.0 1000.7 0
01:30 - 02:00 11.3 11.4 11.2 78 0.0 15.1 218 20.5 1000.5 0
02:00 - 02:30 11.5 11.7 11.1 76 0.0 13.7 219 25.2 1000.4 0
02:30 - 03:00 10.5 11.1 10.1 81 0.0 7.6 225 15.1 1000.4 0
03:00 - 03:30 10.2 10.6 9.8 82 0.0 4.3 270 7.6 1000.3 0
03:30 - 04:00 9.7 9.9 9.7 87 0.0 3.6 312 8.6 1000.4 0
04:00 - 04:30 9.8 10.2 9.5 88 0.0 4.0 298 12.2 1000.5 0
04:30 - 05:00 10.2 10.3 10.1 86 0.0 4.0 325 9.0 1000.6 0
05:00 - 05:30 10.4 10.5 10.1 86 0.0 6.8 319 15.5 1000.6 0
05:30 - 06:00 10.0 10.3 9.8 88 0.0 4.7 325 12.2 1000.4 0
06:00 - 06:30 10.1 10.2 9.9 88 0.0 5.4 311 9.7 1000.5 0
06:30 - 07:00 10.2 10.2 10.1 87 0.0 3.6 259 7.2 1000.6 1
07:00 - 07:30 10.2 10.3 10.1 87 0.0 1.8 262 4.7 1000.6 19
07:30 - 08:00 10.3 10.6 10.1 88 0.0 4.0 16 7.2 1000.8 40
08:00 - 08:30 10.8 11.0 10.6 86 0.0 5.4 11 11.9 1000.9 71
08:30 - 09:00 11.2 11.3 11.0 86 0.0 4.7 17 11.2 1001.0 73
09:00 - 09:30 11.3 11.6 11.2 89 0.0 5.0 11 7.9 1001.1 110
09:30 - 10:00 11.9 12.2 11.6 87 0.0 4.7 19 8.6 1001.2 133
10:00 - 10:30 12.9 13.7 12.2 80 0.1 2.9 334 6.1 1001.2 293
10:30 - 11:00 14.3 14.9 13.8 71 0.0 2.2 356 7.2 1001.0 376
11:00 - 11:30 14.9 15.1 14.7 71 0.0 4.0 139 11.2 1000.8 270
11:30 - 12:00 14.8 15.0 14.4 75 0.0 8.3 82 15.5 1000.5 283
12:00 - 12:30 14.4 14.5 14.2 78 0.0 8.6 78 16.9 1000.2 250
12:30 - 13:00 15.1 15.6 14.6 76 0.0 9.7 78 18.4 1000.1 412
13:00 - 13:30 14.9 15.7 14.4 77 0.0 11.2 83 20.2 1000.1 255
13:30 - 14:00 14.5 14.7 14.4 81 0.0 8.3 82 15.8 1000.0 175
14:00 - 14:30 14.4 15.0 14.2 81 0.0 7.6 100 15.1 999.9 146
14:30 - 15:00 14.4 14.6 14.2 83 0.0 6.1 100 14.4 1000.0 140
15:00 - 15:30 14.4 14.6 14.1 82 0.0 7.6 74 13.7 999.9 133
15:30 - 16:00 14.1 14.2 13.8 83 0.0 7.6 93 13.7 1000.0 73
16:00 - 16:30 13.5 13.8 13.3 87 0.0 6.1 85 14.8 1000.1 10
16:30 - 17:00 13.0 13.6 11.8 75 0.0 19.1 306 51.1 1000.9 0
17:00 - 17:30 10.6 11.7 10.2 89 1.9 19.1 349 38.9 1001.4 0
17:30 - 18:00 10.0 10.2 9.9 94 0.4 10.1 336 24.1 1001.5 0
18:00 - 18:30 10.2 10.3 10.1 91 0.0 19.8 314 27.7 1002.0 0
18:30 - 19:00 10.2 10.4 10.1 91 0.0 17.3 315 26.3 1002.2 0
19:00 - 19:30 10.2 10.4 10.2 92 0.0 17.6 308 27.0 1002.5 0
19:30 - 20:00 10.2 10.2 10.1 92 0.0 13.7 303 23.0 1002.9 0
20:00 - 20:30 10.0 10.1 9.9 92 0.0 16.9 310 23.8 1003.2 0
20:30 - 21:00 9.6 9.9 9.4 94 0.0 13.0 319 19.4 1003.5 0
21:00 - 21:30 9.5 9.7 9.3 94 0.0 12.2 321 21.6 1003.9 0
21:30 - 22:00 9.7 9.9 9.7 91 0.0 18.7 311 25.9 1004.2 0
22:00 - 22:30 9.8 10.0 9.7 89 0.0 11.9 302 23.4 1004.6 0
22:30 - 23:00 10.0 10.0 9.9 86 0.0 11.2 302 19.1 1004.9 0

Les dades en taronja només han passat un control de qualitat automàtic. Resta pendent la seva validació definitiva.